createdAt,value
2023-03-23T15:58:46.881Z,23.24
2023-03-23T16:01:17.196Z,23.33
2023-03-23T16:03:49.254Z,23.18
2023-03-23T16:06:23.418Z,23.38
2023-03-23T16:08:55.809Z,23.37
2023-03-23T16:11:25.888Z,23.45
2023-03-23T16:13:54.185Z,23.25
2023-03-23T16:16:24.546Z,22.84
2023-03-23T16:18:52.909Z,22.87
2023-03-23T16:21:21.276Z,22.39
2023-03-23T16:23:49.557Z,22.51
2023-03-23T16:26:19.506Z,22.47
2023-03-23T16:28:47.952Z,22.63
2023-03-23T16:31:16.287Z,22.75
2023-03-23T16:33:44.663Z,22.44
2023-03-23T16:36:13.531Z,22.55
2023-03-23T16:38:49.351Z,22.50
2023-03-23T16:41:20.792Z,22.72
2023-03-23T16:43:49.082Z,22.76
2023-03-23T16:46:17.771Z,22.38
2023-03-23T16:48:46.062Z,22.56
2023-03-23T16:51:14.336Z,22.48
2023-03-23T16:53:42.653Z,22.56
2023-03-23T16:56:10.964Z,22.32
2023-03-23T16:58:41.532Z,22.50
2023-03-23T17:01:09.608Z,22.74
2023-03-23T17:03:37.924Z,23.00
2023-03-23T17:06:06.954Z,22.82
2023-03-23T17:08:35.307Z,22.83
2023-03-23T17:11:03.562Z,23.07
2023-03-23T17:13:31.857Z,23.08
2023-03-23T17:16:01.546Z,23.39
2023-03-23T17:18:29.794Z,22.94
2023-03-23T17:20:58.083Z,23.21
2023-03-23T17:23:26.506Z,23.13
2023-03-23T17:25:55.609Z,23.06
2023-03-23T17:28:23.916Z,23.21
2023-03-23T17:30:52.890Z,22.77
2023-03-23T17:33:22.545Z,23.03
2023-03-23T17:35:51.866Z,23.10
2023-03-23T17:38:20.625Z,23.04
2023-03-23T17:40:48.912Z,22.93
2023-03-23T17:43:17.237Z,23.06
2023-03-23T17:45:47.106Z,22.96
2023-03-23T17:48:15.767Z,22.91
2023-03-23T17:50:47.962Z,22.82
2023-03-23T17:53:18.493Z,22.81
2023-03-23T17:55:46.939Z,22.89
2023-03-23T17:58:15.695Z,22.94
2023-03-23T18:00:44.030Z,22.89
2023-03-23T18:03:12.346Z,22.97
2023-03-23T18:05:40.661Z,22.82
2023-03-23T18:08:10.750Z,22.69
2023-03-23T18:10:40.320Z,22.74
2023-03-23T18:13:09.484Z,22.80
2023-03-23T18:15:38.397Z,22.84
2023-03-23T18:18:07.173Z,22.81
2023-03-23T18:20:35.626Z,22.81
2023-03-23T18:23:04.707Z,22.76
2023-03-23T18:25:34.679Z,22.73
2023-03-23T18:28:04.833Z,22.69
2023-03-23T18:30:35.708Z,22.69
2023-03-23T18:33:04.250Z,22.51
2023-03-23T18:35:32.664Z,22.49
2023-03-23T18:38:01.205Z,22.47
2023-03-23T18:40:29.459Z,22.49
2023-03-23T18:43:00.558Z,22.65
2023-03-23T18:45:29.041Z,22.77
2023-03-23T18:47:57.310Z,22.67
2023-03-23T18:50:25.860Z,22.76
2023-03-23T18:52:54.143Z,22.74
2023-03-23T18:55:23.834Z,22.77
2023-03-23T18:57:52.216Z,22.76
2023-03-23T19:00:22.460Z,22.83
2023-03-23T19:02:51.931Z,22.82
2023-03-23T19:05:21.620Z,22.86
2023-03-23T19:07:49.968Z,22.86
2023-03-23T19:10:18.258Z,22.88
2023-03-23T19:12:47.348Z,22.81
2023-03-23T19:15:17.326Z,22.84
2023-03-23T19:17:47.022Z,22.71
2023-03-23T19:20:26.960Z,22.78
2023-03-23T19:23:03.821Z,22.75
2023-03-23T19:25:32.629Z,22.77
2023-03-23T19:30:32.229Z,22.56
2023-03-23T19:33:01.979Z,22.70
2023-03-23T19:35:30.255Z,22.71
2023-03-23T19:37:58.534Z,22.71
2023-03-23T19:40:39.093Z,22.71
2023-03-23T19:43:09.380Z,22.65
2023-03-23T19:45:38.257Z,22.66
2023-03-23T19:48:08.004Z,22.59
2023-03-23T19:50:38.626Z,22.60
2023-03-23T19:53:07.331Z,22.61
2023-03-23T19:55:35.816Z,22.66
2023-03-23T19:58:04.092Z,22.64
2023-03-23T20:00:34.350Z,22.63
2023-03-23T20:03:03.805Z,22.60
2023-03-23T20:05:35.150Z,22.61
2023-03-23T20:08:04.754Z,22.46
2023-03-23T20:10:34.668Z,22.50
2023-03-23T20:13:02.987Z,22.43
2023-03-23T20:15:32.005Z,22.47
2023-03-23T20:18:00.930Z,22.50
2023-03-23T20:20:29.647Z,22.47
2023-03-23T20:22:59.208Z,22.43
2023-03-23T20:25:27.466Z,22.48
2023-03-23T20:27:55.767Z,22.40
2023-03-23T20:30:23.990Z,22.43
2023-03-23T20:32:53.595Z,22.38
2023-03-23T20:35:22.443Z,22.32
2023-03-23T20:37:52.678Z,22.21
2023-03-23T20:40:22.488Z,22.33
2023-03-23T20:42:52.692Z,22.32
2023-03-23T20:45:21.421Z,22.32
2023-03-23T20:47:49.711Z,22.26
2023-03-23T20:50:18.559Z,22.25
2023-03-23T20:52:48.031Z,22.25
2023-03-23T20:55:16.345Z,22.28
2023-03-23T20:57:45.922Z,22.26
2023-03-23T21:00:17.910Z,22.24
2023-03-23T21:02:49.789Z,22.25
2023-03-23T21:05:18.138Z,22.26
2023-03-23T21:07:46.715Z,22.30
2023-03-23T21:10:15.000Z,22.26
2023-03-23T21:12:43.254Z,22.32
2023-03-23T21:15:13.877Z,22.30
2023-03-23T21:17:42.102Z,22.34
2023-03-23T21:20:11.457Z,22.28
2023-03-23T21:22:39.731Z,22.20
2023-03-23T21:25:08.604Z,22.26
2023-03-23T21:27:37.342Z,22.27
2023-03-23T21:30:06.404Z,22.27
2023-03-23T21:32:36.371Z,22.23
2023-03-23T21:35:04.848Z,22.25
2023-03-23T21:37:33.641Z,22.25
2023-03-23T21:40:02.234Z,22.24
2023-03-23T21:42:31.134Z,22.19
2023-03-23T21:45:02.554Z,22.09
2023-03-23T21:47:31.351Z,22.13
2023-03-23T21:50:02.011Z,22.15
2023-03-23T21:52:31.048Z,22.15
2023-03-23T21:54:59.461Z,22.08
2023-03-23T21:57:27.691Z,22.01
2023-03-23T21:59:56.473Z,22.04
2023-03-23T22:02:24.907Z,21.99
2023-03-23T22:04:56.339Z,21.94
2023-03-23T22:07:27.696Z,21.94
2023-03-23T22:09:57.582Z,21.93
2023-03-23T22:12:26.214Z,21.86
2023-03-23T22:14:54.597Z,21.80
2023-03-23T22:17:22.981Z,21.76
2023-03-23T22:19:51.342Z,21.68
2023-03-23T22:22:20.135Z,21.59
2023-03-23T22:24:49.886Z,21.49
2023-03-23T22:27:18.371Z,21.42
2023-03-23T22:29:46.904Z,21.39
2023-03-23T22:32:15.409Z,21.25
2023-03-23T22:34:43.884Z,21.27
2023-03-23T22:37:12.204Z,21.17
2023-03-23T22:39:40.521Z,21.11
2023-03-23T22:42:12.372Z,21.10
2023-03-23T22:44:41.895Z,21.01
2023-03-23T22:47:10.231Z,21.01
2023-03-23T22:49:38.571Z,21.06
2023-03-23T22:52:06.944Z,21.01
2023-03-23T22:57:33.774Z,20.96
2023-03-23T23:00:02.150Z,20.90
2023-03-23T23:02:30.687Z,20.86
2023-03-23T23:04:59.148Z,20.87
2023-03-23T23:07:27.542Z,20.85
2023-03-23T23:09:55.872Z,20.80
2023-03-23T23:12:24.250Z,20.84
2023-03-23T23:14:53.972Z,20.78
2023-03-23T23:17:22.305Z,20.79
2023-03-23T23:19:50.655Z,20.73
2023-03-23T23:22:19.639Z,20.71
2023-03-23T23:24:48.497Z,20.71
2023-03-23T23:27:18.176Z,20.68
2023-03-23T23:29:46.572Z,20.61
2023-03-23T23:32:16.653Z,20.56
2023-03-23T23:34:44.997Z,20.47
2023-03-23T23:37:13.860Z,20.38
2023-03-23T23:39:42.610Z,20.30
2023-03-23T23:42:10.964Z,20.24
2023-03-23T23:44:39.557Z,20.20
2023-03-23T23:47:08.185Z,20.19
2023-03-23T23:49:38.500Z,20.17
2023-03-23T23:52:08.472Z,20.14
2023-03-23T23:54:37.603Z,20.12
2023-03-23T23:57:06.578Z,20.09
2023-03-23T23:59:34.988Z,20.04
